sensor_id;sensor_type;location;lat;lon;timestamp;P1;durP1;ratioP1;P2;durP2;ratioP2
27491;SDS011;14927;51.210;6.838;2024-02-28T00:00:35;45.88;;;25.67;;
27491;SDS011;14927;51.210;6.838;2024-02-28T00:03:20;45.20;;;25.17;;
27491;SDS011;14927;51.210;6.838;2024-02-28T00:06:05;47.22;;;25.58;;
27491;SDS011;14927;51.210;6.838;2024-02-28T00:08:50;49.95;;;26.15;;
27491;SDS011;14927;51.210;6.838;2024-02-28T00:11:36;44.47;;;25.15;;
27491;SDS011;14927;51.210;6.838;2024-02-28T00:14:28;48.08;;;25.75;;
27491;SDS011;14927;51.210;6.838;2024-02-28T00:17:13;51.53;;;24.73;;
27491;SDS011;14927;51.210;6.838;2024-02-28T00:19:57;41.90;;;24.00;;
27491;SDS011;14927;51.210;6.838;2024-02-28T00:22:42;43.20;;;23.75;;
27491;SDS011;14927;51.210;6.838;2024-02-28T00:25:27;43.25;;;23.33;;
27491;SDS011;14927;51.210;6.838;2024-02-28T00:28:12;40.75;;;23.30;;
27491;SDS011;14927;51.210;6.838;2024-02-28T00:30:57;43.17;;;24.27;;
27491;SDS011;14927;51.210;6.838;2024-02-28T00:33:41;37.63;;;21.83;;
27491;SDS011;14927;51.210;6.838;2024-02-28T00:36:26;44.65;;;23.33;;
27491;SDS011;14927;51.210;6.838;2024-02-28T00:39:10;43.38;;;23.75;;
27491;SDS011;14927;51.210;6.838;2024-02-28T00:41:55;46.72;;;25.25;;
27491;SDS011;14927;51.210;6.838;2024-02-28T00:44:40;43.97;;;24.13;;
27491;SDS011;14927;51.210;6.838;2024-02-28T00:47:26;48.20;;;23.60;;
27491;SDS011;14927;51.210;6.838;2024-02-28T00:50:10;40.75;;;23.65;;
27491;SDS011;14927;51.210;6.838;2024-02-28T00:52:55;43.03;;;23.73;;
27491;SDS011;14927;51.210;6.838;2024-02-28T00:55:40;42.47;;;23.40;;
27491;SDS011;14927;51.210;6.838;2024-02-28T00:58:24;44.60;;;24.80;;
27491;SDS011;14927;51.210;6.838;2024-02-28T01:01:11;46.58;;;25.55;;
27491;SDS011;14927;51.210;6.838;2024-02-28T01:03:56;49.70;;;25.67;;
27491;SDS011;14927;51.210;6.838;2024-02-28T01:06:40;50.88;;;26.23;;
27491;SDS011;14927;51.210;6.838;2024-02-28T01:09:25;50.55;;;25.88;;
27491;SDS011;14927;51.210;6.838;2024-02-28T01:12:10;48.55;;;24.83;;
27491;SDS011;14927;51.210;6.838;2024-02-28T01:14:54;51.33;;;26.23;;
27491;SDS011;14927;51.210;6.838;2024-02-28T01:17:39;50.67;;;27.00;;
27491;SDS011;14927;51.210;6.838;2024-02-28T01:20:24;54.03;;;26.67;;
27491;SDS011;14927;51.210;6.838;2024-02-28T01:23:08;51.45;;;26.65;;
27491;SDS011;14927;51.210;6.838;2024-02-28T01:25:53;52.60;;;27.50;;
27491;SDS011;14927;51.210;6.838;2024-02-28T01:28:38;51.95;;;26.52;;
27491;SDS011;14927;51.210;6.838;2024-02-28T01:31:23;55.60;;;28.05;;
27491;SDS011;14927;51.210;6.838;2024-02-28T01:34:10;60.38;;;29.65;;
27491;SDS011;14927;51.210;6.838;2024-02-28T01:36:55;59.00;;;30.27;;
27491;SDS011;14927;51.210;6.838;2024-02-28T01:39:40;63.88;;;30.75;;
27491;SDS011;14927;51.210;6.838;2024-02-28T01:42:24;66.40;;;31.30;;
27491;SDS011;14927;51.210;6.838;2024-02-28T01:45:12;64.32;;;31.67;;
27491;SDS011;14927;51.210;6.838;2024-02-28T01:47:58;71.65;;;33.17;;
27491;SDS011;14927;51.210;6.838;2024-02-28T01:50:43;66.07;;;31.48;;
27491;SDS011;14927;51.210;6.838;2024-02-28T01:53:28;77.03;;;33.38;;
27491;SDS011;14927;51.210;6.838;2024-02-28T01:56:13;77.85;;;33.33;;
27491;SDS011;14927;51.210;6.838;2024-02-28T01:59:03;67.40;;;32.33;;
27491;SDS011;14927;51.210;6.838;2024-02-28T02:01:48;68.40;;;31.33;;
27491;SDS011;14927;51.210;6.838;2024-02-28T02:04:33;69.22;;;32.42;;
27491;SDS011;14927;51.210;6.838;2024-02-28T02:07:18;71.22;;;32.95;;
27491;SDS011;14927;51.210;6.838;2024-02-28T02:10:03;68.22;;;31.95;;
27491;SDS011;14927;51.210;6.838;2024-02-28T02:12:52;64.22;;;31.10;;
27491;SDS011;14927;51.210;6.838;2024-02-28T02:15:36;65.88;;;31.50;;
27491;SDS011;14927;51.210;6.838;2024-02-28T02:18:22;67.88;;;31.02;;
27491;SDS011;14927;51.210;6.838;2024-02-28T02:21:07;64.20;;;31.40;;
27491;SDS011;14927;51.210;6.838;2024-02-28T02:23:55;63.35;;;31.70;;
27491;SDS011;14927;51.210;6.838;2024-02-28T02:26:39;60.47;;;31.05;;
27491;SDS011;14927;51.210;6.838;2024-02-28T02:29:24;64.78;;;30.88;;
27491;SDS011;14927;51.210;6.838;2024-02-28T02:32:08;64.65;;;32.22;;
27491;SDS011;14927;51.210;6.838;2024-02-28T02:34:53;62.90;;;30.80;;
27491;SDS011;14927;51.210;6.838;2024-02-28T02:37:40;59.30;;;28.63;;
27491;SDS011;14927;51.210;6.838;2024-02-28T02:40:29;58.40;;;29.33;;
27491;SDS011;14927;51.210;6.838;2024-02-28T02:43:14;55.83;;;27.55;;
27491;SDS011;14927;51.210;6.838;2024-02-28T02:45:58;54.20;;;28.23;;
27491;SDS011;14927;51.210;6.838;2024-02-28T02:48:43;54.53;;;26.83;;
27491;SDS011;14927;51.210;6.838;2024-02-28T02:51:27;51.67;;;26.23;;
27491;SDS011;14927;51.210;6.838;2024-02-28T02:54:12;50.50;;;26.33;;
27491;SDS011;14927;51.210;6.838;2024-02-28T02:56:57;52.47;;;26.95;;
27491;SDS011;14927;51.210;6.838;2024-02-28T02:59:41;53.88;;;28.15;;
27491;SDS011;14927;51.210;6.838;2024-02-28T03:02:26;55.70;;;29.17;;
27491;SDS011;14927;51.210;6.838;2024-02-28T03:05:11;53.20;;;27.10;;
27491;SDS011;14927;51.210;6.838;2024-02-28T03:07:57;49.80;;;27.38;;
27491;SDS011;14927;51.210;6.838;2024-02-28T03:10:42;49.65;;;27.17;;
27491;SDS011;14927;51.210;6.838;2024-02-28T03:13:27;54.30;;;28.38;;
27491;SDS011;14927;51.210;6.838;2024-02-28T03:16:12;53.95;;;26.92;;
27491;SDS011;14927;51.210;6.838;2024-02-28T03:18:56;54.13;;;27.92;;
27491;SDS011;14927;51.210;6.838;2024-02-28T03:21:44;58.63;;;29.35;;
27491;SDS011;14927;51.210;6.838;2024-02-28T03:24:28;54.15;;;28.55;;
27491;SDS011;14927;51.210;6.838;2024-02-28T03:27:13;53.22;;;28.05;;
27491;SDS011;14927;51.210;6.838;2024-02-28T03:29:58;54.45;;;28.95;;
27491;SDS011;14927;51.210;6.838;2024-02-28T03:32:43;52.28;;;27.92;;
27491;SDS011;14927;51.210;6.838;2024-02-28T03:35:28;60.28;;;32.15;;
27491;SDS011;14927;51.210;6.838;2024-02-28T03:38:13;58.70;;;32.28;;
27491;SDS011;14927;51.210;6.838;2024-02-28T03:40:57;61.22;;;32.90;;
27491;SDS011;14927;51.210;6.838;2024-02-28T03:43:42;70.55;;;36.88;;
27491;SDS011;14927;51.210;6.838;2024-02-28T03:46:26;65.68;;;34.72;;
27491;SDS011;14927;51.210;6.838;2024-02-28T03:49:11;67.28;;;36.05;;
27491;SDS011;14927;51.210;6.838;2024-02-28T03:51:56;77.05;;;38.75;;
27491;SDS011;14927;51.210;6.838;2024-02-28T03:54:42;79.72;;;40.17;;
27491;SDS011;14927;51.210;6.838;2024-02-28T03:57:28;85.03;;;41.33;;
27491;SDS011;14927;51.210;6.838;2024-02-28T04:00:12;77.20;;;42.78;;
27491;SDS011;14927;51.210;6.838;2024-02-28T04:02:57;81.47;;;43.55;;
27491;SDS011;14927;51.210;6.838;2024-02-28T04:05:42;77.95;;;41.60;;
27491;SDS011;14927;51.210;6.838;2024-02-28T04:08:26;72.93;;;39.55;;
27491;SDS011;14927;51.210;6.838;2024-02-28T04:11:11;71.55;;;38.95;;
27491;SDS011;14927;51.210;6.838;2024-02-28T04:13:56;79.55;;;39.65;;
27491;SDS011;14927;51.210;6.838;2024-02-28T04:16:41;70.65;;;38.08;;
27491;SDS011;14927;51.210;6.838;2024-02-28T04:19:34;67.63;;;38.13;;
27491;SDS011;14927;51.210;6.838;2024-02-28T04:22:22;77.18;;;39.88;;
27491;SDS011;14927;51.210;6.838;2024-02-28T04:25:08;87.47;;;43.80;;
27491;SDS011;14927;51.210;6.838;2024-02-28T04:27:54;84.88;;;44.78;;
27491;SDS011;14927;51.210;6.838;2024-02-28T04:30:38;87.85;;;43.88;;
27491;SDS011;14927;51.210;6.838;2024-02-28T04:33:23;91.03;;;47.05;;
27491;SDS011;14927;51.210;6.838;2024-02-28T04:36:07;90.82;;;48.22;;
27491;SDS011;14927;51.210;6.838;2024-02-28T04:38:52;90.90;;;46.63;;
27491;SDS011;14927;51.210;6.838;2024-02-28T04:41:37;97.43;;;49.38;;
27491;SDS011;14927;51.210;6.838;2024-02-28T04:44:21;99.75;;;50.25;;
27491;SDS011;14927;51.210;6.838;2024-02-28T04:47:06;99.35;;;49.47;;
27491;SDS011;14927;51.210;6.838;2024-02-28T04:49:50;102.20;;;53.40;;
27491;SDS011;14927;51.210;6.838;2024-02-28T04:52:35;102.53;;;53.35;;
27491;SDS011;14927;51.210;6.838;2024-02-28T04:55:20;108.72;;;53.75;;
27491;SDS011;14927;51.210;6.838;2024-02-28T04:58:04;108.28;;;53.15;;
27491;SDS011;14927;51.210;6.838;2024-02-28T05:00:49;108.88;;;53.83;;
27491;SDS011;14927;51.210;6.838;2024-02-28T05:03:34;97.70;;;50.08;;
27491;SDS011;14927;51.210;6.838;2024-02-28T05:06:18;103.35;;;52.67;;
27491;SDS011;14927;51.210;6.838;2024-02-28T05:09:03;105.57;;;52.40;;
27491;SDS011;14927;51.210;6.838;2024-02-28T05:11:48;99.78;;;50.28;;
27491;SDS011;14927;51.210;6.838;2024-02-28T05:14:32;102.07;;;53.10;;
27491;SDS011;14927;51.210;6.838;2024-02-28T05:17:17;100.22;;;51.63;;
27491;SDS011;14927;51.210;6.838;2024-02-28T05:20:02;101.10;;;52.30;;
27491;SDS011;14927;51.210;6.838;2024-02-28T05:22:46;100.75;;;52.30;;
27491;SDS011;14927;51.210;6.838;2024-02-28T05:25:31;101.60;;;51.83;;
27491;SDS011;14927;51.210;6.838;2024-02-28T05:28:15;101.20;;;53.08;;
27491;SDS011;14927;51.210;6.838;2024-02-28T05:31:02;100.43;;;51.20;;
27491;SDS011;14927;51.210;6.838;2024-02-28T05:34:05;102.53;;;48.92;;
27491;SDS011;14927;51.210;6.838;2024-02-28T05:36:49;98.43;;;50.38;;
27491;SDS011;14927;51.210;6.838;2024-02-28T05:39:34;90.80;;;48.80;;
27491;SDS011;14927;51.210;6.838;2024-02-28T05:42:18;94.15;;;51.13;;
27491;SDS011;14927;51.210;6.838;2024-02-28T05:45:06;96.70;;;51.03;;
27491;SDS011;14927;51.210;6.838;2024-02-28T05:47:51;95.30;;;50.90;;
27491;SDS011;14927;51.210;6.838;2024-02-28T05:50:36;95.80;;;49.60;;
27491;SDS011;14927;51.210;6.838;2024-02-28T05:53:20;98.72;;;51.42;;
27491;SDS011;14927;51.210;6.838;2024-02-28T05:56:06;96.90;;;50.28;;
27491;SDS011;14927;51.210;6.838;2024-02-28T05:58:57;89.95;;;48.60;;
27491;SDS011;14927;51.210;6.838;2024-02-28T06:01:41;97.18;;;50.58;;
27491;SDS011;14927;51.210;6.838;2024-02-28T06:04:27;92.85;;;48.15;;
27491;SDS011;14927;51.210;6.838;2024-02-28T06:07:12;92.15;;;47.40;;
27491;SDS011;14927;51.210;6.838;2024-02-28T06:09:56;99.03;;;50.38;;
27491;SDS011;14927;51.210;6.838;2024-02-28T06:12:41;96.95;;;48.03;;
27491;SDS011;14927;51.210;6.838;2024-02-28T06:15:28;100.05;;;47.33;;
27491;SDS011;14927;51.210;6.838;2024-02-28T06:31:43;90.55;;;46.17;;
27491;SDS011;14927;51.210;6.838;2024-02-28T06:34:27;93.43;;;45.03;;
27491;SDS011;14927;51.210;6.838;2024-02-28T06:37:12;93.68;;;45.00;;
27491;SDS011;14927;51.210;6.838;2024-02-28T06:39:57;91.85;;;44.97;;
27491;SDS011;14927;51.210;6.838;2024-02-28T06:42:44;99.25;;;43.97;;
27491;SDS011;14927;51.210;6.838;2024-02-28T06:45:28;88.47;;;43.95;;
27491;SDS011;14927;51.210;6.838;2024-02-28T06:48:13;101.28;;;43.05;;
27491;SDS011;14927;51.210;6.838;2024-02-28T06:51:00;94.65;;;43.55;;
27491;SDS011;14927;51.210;6.838;2024-02-28T06:53:48;93.90;;;44.97;;
27491;SDS011;14927;51.210;6.838;2024-02-28T06:56:33;93.93;;;43.95;;
27491;SDS011;14927;51.210;6.838;2024-02-28T06:59:20;98.90;;;46.10;;
27491;SDS011;14927;51.210;6.838;2024-02-28T07:02:14;101.57;;;46.35;;
27491;SDS011;14927;51.210;6.838;2024-02-28T07:04:59;103.10;;;46.17;;
27491;SDS011;14927;51.210;6.838;2024-02-28T07:07:44;105.05;;;47.45;;
27491;SDS011;14927;51.210;6.838;2024-02-28T07:10:28;104.25;;;46.58;;
27491;SDS011;14927;51.210;6.838;2024-02-28T07:13:13;102.65;;;46.05;;
27491;SDS011;14927;51.210;6.838;2024-02-28T07:15:57;87.75;;;42.40;;
27491;SDS011;14927;51.210;6.838;2024-02-28T07:18:43;89.68;;;42.60;;
27491;SDS011;14927;51.210;6.838;2024-02-28T07:21:28;85.50;;;41.85;;
27491;SDS011;14927;51.210;6.838;2024-02-28T07:24:13;80.93;;;39.47;;
27491;SDS011;14927;51.210;6.838;2024-02-28T07:26:58;84.13;;;39.97;;
27491;SDS011;14927;51.210;6.838;2024-02-28T07:29:43;78.15;;;39.28;;
27491;SDS011;14927;51.210;6.838;2024-02-28T07:32:27;87.07;;;41.17;;
27491;SDS011;14927;51.210;6.838;2024-02-28T07:35:12;76.35;;;38.00;;
27491;SDS011;14927;51.210;6.838;2024-02-28T07:37:57;79.32;;;39.00;;
27491;SDS011;14927;51.210;6.838;2024-02-28T07:40:42;80.70;;;39.28;;
27491;SDS011;14927;51.210;6.838;2024-02-28T07:43:28;87.90;;;42.25;;
27491;SDS011;14927;51.210;6.838;2024-02-28T07:50:29;80.05;;;37.45;;
27491;SDS011;14927;51.210;6.838;2024-02-28T07:53:14;80.90;;;38.58;;
27491;SDS011;14927;51.210;6.838;2024-02-28T07:56:01;81.13;;;38.80;;
27491;SDS011;14927;51.210;6.838;2024-02-28T07:58:49;88.85;;;41.85;;
27491;SDS011;14927;51.210;6.838;2024-02-28T08:01:33;92.05;;;40.63;;
27491;SDS011;14927;51.210;6.838;2024-02-28T08:04:20;81.65;;;40.85;;
27491;SDS011;14927;51.210;6.838;2024-02-28T08:07:10;84.95;;;39.78;;
27491;SDS011;14927;51.210;6.838;2024-02-28T08:09:55;89.53;;;41.05;;
27491;SDS011;14927;51.210;6.838;2024-02-28T08:12:40;89.80;;;39.78;;
27491;SDS011;14927;51.210;6.838;2024-02-28T08:15:24;88.70;;;40.88;;
27491;SDS011;14927;51.210;6.838;2024-02-28T08:18:09;88.93;;;39.83;;
27491;SDS011;14927;51.210;6.838;2024-02-28T08:20:58;85.13;;;40.10;;
27491;SDS011;14927;51.210;6.838;2024-02-28T08:23:47;87.28;;;40.75;;
27491;SDS011;14927;51.210;6.838;2024-02-28T08:26:32;92.13;;;42.20;;
27491;SDS011;14927;51.210;6.838;2024-02-28T08:29:16;97.75;;;44.10;;
27491;SDS011;14927;51.210;6.838;2024-02-28T08:32:01;98.07;;;43.58;;
27491;SDS011;14927;51.210;6.838;2024-02-28T08:34:46;94.57;;;42.42;;
27491;SDS011;14927;51.210;6.838;2024-02-28T08:37:31;98.53;;;43.47;;
27491;SDS011;14927;51.210;6.838;2024-02-28T08:40:19;94.97;;;42.70;;
27491;SDS011;14927;51.210;6.838;2024-02-28T08:43:03;89.63;;;40.13;;
27491;SDS011;14927;51.210;6.838;2024-02-28T08:45:48;86.53;;;41.78;;
27491;SDS011;14927;51.210;6.838;2024-02-28T08:48:35;87.75;;;40.17;;
27491;SDS011;14927;51.210;6.838;2024-02-28T08:51:21;82.38;;;39.85;;
27491;SDS011;14927;51.210;6.838;2024-02-28T08:54:06;85.53;;;40.42;;
27491;SDS011;14927;51.210;6.838;2024-02-28T08:56:50;92.80;;;42.03;;
27491;SDS011;14927;51.210;6.838;2024-02-28T08:59:34;83.40;;;39.13;;
27491;SDS011;14927;51.210;6.838;2024-02-28T09:02:19;91.07;;;41.83;;
27491;SDS011;14927;51.210;6.838;2024-02-28T09:05:04;85.97;;;40.75;;
27491;SDS011;14927;51.210;6.838;2024-02-28T09:07:49;88.15;;;43.00;;
27491;SDS011;14927;51.210;6.838;2024-02-28T09:10:35;83.38;;;40.30;;
27491;SDS011;14927;51.210;6.838;2024-02-28T09:13:20;82.93;;;41.65;;
27491;SDS011;14927;51.210;6.838;2024-02-28T09:16:05;75.90;;;38.30;;
27491;SDS011;14927;51.210;6.838;2024-02-28T09:18:50;70.25;;;37.45;;
27491;SDS011;14927;51.210;6.838;2024-02-28T09:21:37;83.15;;;40.10;;
27491;SDS011;14927;51.210;6.838;2024-02-28T09:24:22;81.60;;;40.35;;
27491;SDS011;14927;51.210;6.838;2024-02-28T09:27:09;83.25;;;41.15;;
27491;SDS011;14927;51.210;6.838;2024-02-28T09:29:54;85.03;;;40.97;;
27491;SDS011;14927;51.210;6.838;2024-02-28T09:32:39;81.32;;;41.63;;
27491;SDS011;14927;51.210;6.838;2024-02-28T09:35:23;76.28;;;39.38;;
27491;SDS011;14927;51.210;6.838;2024-02-28T09:38:08;85.30;;;42.65;;
27491;SDS011;14927;51.210;6.838;2024-02-28T09:40:53;80.88;;;40.10;;
27491;SDS011;14927;51.210;6.838;2024-02-28T09:43:40;75.00;;;40.13;;
27491;SDS011;14927;51.210;6.838;2024-02-28T09:46:25;80.53;;;40.50;;
27491;SDS011;14927;51.210;6.838;2024-02-28T09:49:09;73.97;;;38.85;;
27491;SDS011;14927;51.210;6.838;2024-02-28T09:51:57;82.88;;;41.22;;
27491;SDS011;14927;51.210;6.838;2024-02-28T09:54:42;81.10;;;41.63;;
27491;SDS011;14927;51.210;6.838;2024-02-28T09:57:28;76.80;;;39.78;;
27491;SDS011;14927;51.210;6.838;2024-02-28T10:00:14;76.85;;;38.42;;
27491;SDS011;14927;51.210;6.838;2024-02-28T10:03:10;68.55;;;37.97;;
27491;SDS011;14927;51.210;6.838;2024-02-28T10:06:02;74.38;;;40.20;;
27491;SDS011;14927;51.210;6.838;2024-02-28T10:08:46;74.90;;;40.53;;
27491;SDS011;14927;51.210;6.838;2024-02-28T10:11:31;77.15;;;39.92;;
27491;SDS011;14927;51.210;6.838;2024-02-28T10:14:17;74.97;;;40.22;;
27491;SDS011;14927;51.210;6.838;2024-02-28T10:17:04;73.32;;;40.35;;
27491;SDS011;14927;51.210;6.838;2024-02-28T10:19:51;73.32;;;38.45;;
27491;SDS011;14927;51.210;6.838;2024-02-28T10:22:36;69.20;;;38.58;;
27491;SDS011;14927;51.210;6.838;2024-02-28T10:25:21;71.30;;;38.97;;
27491;SDS011;14927;51.210;6.838;2024-02-28T10:28:06;67.53;;;38.72;;
27491;SDS011;14927;51.210;6.838;2024-02-28T10:30:51;68.10;;;38.40;;
27491;SDS011;14927;51.210;6.838;2024-02-28T10:33:37;67.85;;;38.55;;
27491;SDS011;14927;51.210;6.838;2024-02-28T10:36:22;72.72;;;40.42;;
27491;SDS011;14927;51.210;6.838;2024-02-28T10:39:06;73.97;;;41.15;;
27491;SDS011;14927;51.210;6.838;2024-02-28T10:41:54;71.65;;;38.78;;
27491;SDS011;14927;51.210;6.838;2024-02-28T10:44:40;75.20;;;41.97;;
27491;SDS011;14927;51.210;6.838;2024-02-28T10:47:26;74.32;;;42.00;;
27491;SDS011;14927;51.210;6.838;2024-02-28T10:50:12;68.15;;;39.03;;
27491;SDS011;14927;51.210;6.838;2024-02-28T10:53:03;72.03;;;39.65;;
27491;SDS011;14927;51.210;6.838;2024-02-28T10:55:49;67.38;;;38.72;;
27491;SDS011;14927;51.210;6.838;2024-02-28T10:58:35;71.63;;;40.30;;
27491;SDS011;14927;51.210;6.838;2024-02-28T11:01:21;71.97;;;39.45;;
27491;SDS011;14927;51.210;6.838;2024-02-28T11:04:05;77.35;;;42.63;;
27491;SDS011;14927;51.210;6.838;2024-02-28T11:06:51;77.68;;;42.88;;
27491;SDS011;14927;51.210;6.838;2024-02-28T11:09:40;76.88;;;42.88;;
27491;SDS011;14927;51.210;6.838;2024-02-28T11:12:26;79.28;;;41.97;;
27491;SDS011;14927;51.210;6.838;2024-02-28T11:15:16;74.63;;;41.08;;
27491;SDS011;14927;51.210;6.838;2024-02-28T11:18:07;71.75;;;39.47;;
27491;SDS011;14927;51.210;6.838;2024-02-28T11:20:53;71.82;;;39.80;;
27491;SDS011;14927;51.210;6.838;2024-02-28T11:23:38;72.55;;;39.78;;
27491;SDS011;14927;51.210;6.838;2024-02-28T11:26:23;74.85;;;39.83;;
27491;SDS011;14927;51.210;6.838;2024-02-28T11:29:24;65.13;;;36.05;;
27491;SDS011;14927;51.210;6.838;2024-02-28T11:32:26;70.40;;;39.58;;
27491;SDS011;14927;51.210;6.838;2024-02-28T11:35:20;69.20;;;38.42;;
27491;SDS011;14927;51.210;6.838;2024-02-28T11:38:09;61.65;;;34.83;;
27491;SDS011;14927;51.210;6.838;2024-02-28T11:41:02;72.05;;;39.30;;
27491;SDS011;14927;51.210;6.838;2024-02-28T11:43:47;65.60;;;37.05;;
27491;SDS011;14927;51.210;6.838;2024-02-28T11:46:32;65.40;;;35.50;;
27491;SDS011;14927;51.210;6.838;2024-02-28T11:49:19;65.32;;;37.22;;
27491;SDS011;14927;51.210;6.838;2024-02-28T11:52:04;57.97;;;35.08;;
27491;SDS011;14927;51.210;6.838;2024-02-28T11:54:51;68.95;;;37.53;;
27491;SDS011;14927;51.210;6.838;2024-02-28T11:57:37;72.00;;;39.00;;
27491;SDS011;14927;51.210;6.838;2024-02-28T12:00:22;59.03;;;34.08;;
27491;SDS011;14927;51.210;6.838;2024-02-28T12:03:07;57.28;;;32.90;;
27491;SDS011;14927;51.210;6.838;2024-02-28T12:05:52;59.00;;;34.70;;
27491;SDS011;14927;51.210;6.838;2024-02-28T12:08:39;59.25;;;35.67;;
27491;SDS011;14927;51.210;6.838;2024-02-28T12:11:24;54.47;;;31.75;;
27491;SDS011;14927;51.210;6.838;2024-02-28T12:14:09;58.00;;;33.85;;
27491;SDS011;14927;51.210;6.838;2024-02-28T12:16:57;57.53;;;34.25;;
27491;SDS011;14927;51.210;6.838;2024-02-28T12:19:42;56.72;;;33.00;;
27491;SDS011;14927;51.210;6.838;2024-02-28T12:22:27;58.25;;;33.20;;
27491;SDS011;14927;51.210;6.838;2024-02-28T12:25:11;60.15;;;34.55;;
27491;SDS011;14927;51.210;6.838;2024-02-28T12:27:56;52.03;;;30.38;;
27491;SDS011;14927;51.210;6.838;2024-02-28T12:30:41;52.90;;;30.88;;
27491;SDS011;14927;51.210;6.838;2024-02-28T12:33:29;52.50;;;31.05;;
27491;SDS011;14927;51.210;6.838;2024-02-28T12:36:13;53.58;;;32.95;;
27491;SDS011;14927;51.210;6.838;2024-02-28T12:38:59;52.13;;;32.22;;
27491;SDS011;14927;51.210;6.838;2024-02-28T12:41:43;49.03;;;30.73;;
27491;SDS011;14927;51.210;6.838;2024-02-28T12:44:31;51.45;;;30.60;;
27491;SDS011;14927;51.210;6.838;2024-02-28T12:47:15;53.47;;;30.63;;
27491;SDS011;14927;51.210;6.838;2024-02-28T12:50:00;44.72;;;26.65;;
27491;SDS011;14927;51.210;6.838;2024-02-28T12:52:45;49.08;;;27.48;;
27491;SDS011;14927;51.210;6.838;2024-02-28T12:55:30;48.92;;;27.92;;
27491;SDS011;14927;51.210;6.838;2024-02-28T12:58:14;55.15;;;30.58;;
27491;SDS011;14927;51.210;6.838;2024-02-28T13:00:59;47.90;;;30.27;;
27491;SDS011;14927;51.210;6.838;2024-02-28T13:03:43;52.35;;;31.50;;
27491;SDS011;14927;51.210;6.838;2024-02-28T13:06:28;46.85;;;29.00;;
27491;SDS011;14927;51.210;6.838;2024-02-28T13:09:12;46.85;;;28.42;;
27491;SDS011;14927;51.210;6.838;2024-02-28T13:11:59;46.50;;;30.08;;
27491;SDS011;14927;51.210;6.838;2024-02-28T13:14:45;53.00;;;30.02;;
27491;SDS011;14927;51.210;6.838;2024-02-28T13:17:30;47.75;;;27.77;;
27491;SDS011;14927;51.210;6.838;2024-02-28T13:20:14;45.47;;;29.02;;
27491;SDS011;14927;51.210;6.838;2024-02-28T13:23:00;46.72;;;29.88;;
27491;SDS011;14927;51.210;6.838;2024-02-28T13:25:44;44.95;;;28.45;;
27491;SDS011;14927;51.210;6.838;2024-02-28T13:28:29;44.10;;;29.02;;
27491;SDS011;14927;51.210;6.838;2024-02-28T13:31:14;44.88;;;28.85;;
27491;SDS011;14927;51.210;6.838;2024-02-28T13:33:58;42.67;;;26.13;;
27491;SDS011;14927;51.210;6.838;2024-02-28T13:36:44;42.25;;;25.67;;
27491;SDS011;14927;51.210;6.838;2024-02-28T13:39:28;43.72;;;28.98;;
27491;SDS011;14927;51.210;6.838;2024-02-28T13:42:13;43.88;;;28.67;;
27491;SDS011;14927;51.210;6.838;2024-02-28T13:44:57;46.65;;;29.85;;
27491;SDS011;14927;51.210;6.838;2024-02-28T13:47:42;41.13;;;27.23;;
27491;SDS011;14927;51.210;6.838;2024-02-28T13:50:27;44.35;;;25.95;;
27491;SDS011;14927;51.210;6.838;2024-02-28T13:53:15;37.53;;;24.17;;
27491;SDS011;14927;51.210;6.838;2024-02-28T13:55:59;33.03;;;20.88;;
27491;SDS011;14927;51.210;6.838;2024-02-28T13:58:47;32.65;;;21.52;;
27491;SDS011;14927;51.210;6.838;2024-02-28T14:01:31;33.15;;;21.85;;
27491;SDS011;14927;51.210;6.838;2024-02-28T14:04:19;34.85;;;21.38;;
27491;SDS011;14927;51.210;6.838;2024-02-28T14:07:04;37.97;;;23.35;;
27491;SDS011;14927;51.210;6.838;2024-02-28T14:10:07;34.40;;;22.30;;
27491;SDS011;14927;51.210;6.838;2024-02-28T14:13:12;38.83;;;22.40;;
27491;SDS011;14927;51.210;6.838;2024-02-28T14:16:01;33.10;;;21.70;;
27491;SDS011;14927;51.210;6.838;2024-02-28T14:18:50;35.20;;;21.80;;
27491;SDS011;14927;51.210;6.838;2024-02-28T14:21:54;37.73;;;24.63;;
27491;SDS011;14927;51.210;6.838;2024-02-28T14:24:51;44.17;;;26.08;;
27491;SDS011;14927;51.210;6.838;2024-02-28T14:27:55;43.85;;;27.08;;
27491;SDS011;14927;51.210;6.838;2024-02-28T14:34:44;46.70;;;28.25;;
27491;SDS011;14927;51.210;6.838;2024-02-28T14:37:38;38.13;;;24.52;;
27491;SDS011;14927;51.210;6.838;2024-02-28T14:43:47;46.05;;;25.75;;
27491;SDS011;14927;51.210;6.838;2024-02-28T14:50:18;39.25;;;22.23;;
27491;SDS011;14927;51.210;6.838;2024-02-28T14:53:16;35.05;;;22.67;;
27491;SDS011;14927;51.210;6.838;2024-02-28T14:56:07;37.97;;;22.52;;
27491;SDS011;14927;51.210;6.838;2024-02-28T15:16:12;32.13;;;19.45;;
27491;SDS011;14927;51.210;6.838;2024-02-28T15:19:53;33.58;;;19.30;;
27491;SDS011;14927;51.210;6.838;2024-02-28T15:23:27;38.70;;;21.70;;
27491;SDS011;14927;51.210;6.838;2024-02-28T15:25:52;34.65;;;20.60;;
27491;SDS011;14927;51.210;6.838;2024-02-28T15:29:04;31.58;;;20.05;;
27491;SDS011;14927;51.210;6.838;2024-02-28T15:31:59;32.38;;;17.85;;
27491;SDS011;14927;51.210;6.838;2024-02-28T15:35:00;26.60;;;15.18;;
27491;SDS011;14927;51.210;6.838;2024-02-28T15:37:45;24.83;;;14.15;;
27491;SDS011;14927;51.210;6.838;2024-02-28T15:40:48;26.55;;;15.60;;
27491;SDS011;14927;51.210;6.838;2024-02-28T15:44:05;26.92;;;14.82;;
27491;SDS011;14927;51.210;6.838;2024-02-28T15:46:53;25.35;;;14.15;;
27491;SDS011;14927;51.210;6.838;2024-02-28T15:49:42;24.08;;;14.55;;
27491;SDS011;14927;51.210;6.838;2024-02-28T15:52:31;23.25;;;13.40;;
27491;SDS011;14927;51.210;6.838;2024-02-28T15:55:15;24.00;;;12.90;;
27491;SDS011;14927;51.210;6.838;2024-02-28T15:58:12;22.95;;;14.18;;
27491;SDS011;14927;51.210;6.838;2024-02-28T16:00:59;24.30;;;12.95;;
27491;SDS011;14927;51.210;6.838;2024-02-28T16:03:44;22.67;;;13.57;;
27491;SDS011;14927;51.210;6.838;2024-02-28T16:06:34;25.10;;;13.73;;
27491;SDS011;14927;51.210;6.838;2024-02-28T16:09:21;25.10;;;12.88;;
27491;SDS011;14927;51.210;6.838;2024-02-28T16:12:08;24.98;;;13.82;;
27491;SDS011;14927;51.210;6.838;2024-02-28T16:14:53;26.85;;;14.05;;
27491;SDS011;14927;51.210;6.838;2024-02-28T16:17:46;25.95;;;14.23;;
27491;SDS011;14927;51.210;6.838;2024-02-28T16:20:35;28.05;;;14.55;;
27491;SDS011;14927;51.210;6.838;2024-02-28T16:23:21;29.02;;;16.23;;
27491;SDS011;14927;51.210;6.838;2024-02-28T16:26:08;32.30;;;17.48;;
27491;SDS011;14927;51.210;6.838;2024-02-28T16:29:21;33.22;;;17.33;;
27491;SDS011;14927;51.210;6.838;2024-02-28T16:32:31;32.92;;;17.23;;
27491;SDS011;14927;51.210;6.838;2024-02-28T16:35:16;38.67;;;19.33;;
27491;SDS011;14927;51.210;6.838;2024-02-28T16:38:03;29.40;;;17.52;;
27491;SDS011;14927;51.210;6.838;2024-02-28T16:41:03;34.17;;;19.33;;
27491;SDS011;14927;51.210;6.838;2024-02-28T16:43:48;29.98;;;17.77;;
27491;SDS011;14927;51.210;6.838;2024-02-28T16:46:34;36.88;;;17.67;;
27491;SDS011;14927;51.210;6.838;2024-02-28T16:49:19;33.38;;;18.58;;
27491;SDS011;14927;51.210;6.838;2024-02-28T16:52:04;37.72;;;19.63;;
27491;SDS011;14927;51.210;6.838;2024-02-28T16:54:49;35.53;;;20.02;;
27491;SDS011;14927;51.210;6.838;2024-02-28T16:57:33;38.90;;;20.90;;
27491;SDS011;14927;51.210;6.838;2024-02-28T17:00:21;38.28;;;20.17;;